Terminal Aerodrome Forecast
Issued by NWS

Home | Current Version | Previous Version | Text Only | Print | Product List | Glossary On
Versions: 1 2 3 4 5 6 7 8 9 10 11 12 13 14 15
023
FTPA31 PHFO 221729
TAFHTO
TAF
PHTO 221729Z 2218/2318 24005KT P6SM FEW030 SCT050
     FM222000 01011KT P6SM FEW030 SCT050
     FM230500 24005KT P6SM VCSH SCT030 BKN050=

USA.gov is the U.S. government's official web portal to all federal, state and local government web resources and services.